Bourbon Pearl — LCTD — position and weather

sailwx.info

Track history (hours):
 
Tides and Currents Weather Stations Pressure Air Temp Water Temp Dewpoint Dewpoint Depression Visibility Wind Speed Wind Dir Waves Ship Positions

Bourbon Pearl

Last reported at 2014-Jul-30 01:29 UTC. Time now 2014-Jul-30 09:11 UTC.
Position N 32°06' E 030°41'.

Length 91 m; draft 6 m.

Type: Other ship. MMSI: 258176000.

Date/timePositionNaut miles runAvg speedWind from/ knotsBaromVisibWave heightAir tempDewpointWater temp
2014-Jul-30 01:29N 32°06' E 030°41'0 0.0
2014-Jul-30 00:33N 32°06' E 030°41'0 0.1
2014-Jul-29 23:33N 32°06' E 030°41'0 0.0
2014-Jul-29 22:33N 32°06' E 030°41'0 0.0
2014-Jul-29 21:33N 32°06' E 030°41'0 0.1
2014-Jul-29 20:33N 32°06' E 030°41'1 1.0
2014-Jul-29 19:33N 32°07' E 030°41'0 0.1
2014-Jul-29 18:30N 32°07' E 030°41'0 0.0
2014-Jul-29 17:33N 32°07' E 030°41'0 0.1
2014-Jul-29 16:33N 32°07' E 030°41'0 0.1
2014-Jul-29 15:33N 32°07' E 030°41'0 0.0
2014-Jul-29 14:33N 32°07' E 030°41'0 0.0
2014-Jul-29 13:33N 32°07' E 030°41'0 0.1
2014-Jul-29 12:33N 32°07' E 030°41'0 0.1
2014-Jul-29 11:33N 32°07' E 030°41'0 0.0
2014-Jul-29 10:33N 32°07' E 030°41'0 0.0
2014-Jul-29 09:33N 32°07' E 030°41'0 0.0
2014-Jul-29 08:33N 32°07' E 030°41'0 0.0
2014-Jul-29 07:33N 32°07' E 030°41'0 0.1
2014-Jul-29 06:19N 32°07' E 030°41'0 0.0
2014-Jul-29 05:33N 32°07' E 030°41'0 0.0
2014-Jul-29 01:33N 32°07' E 030°41'0 0.0
2014-Jul-29 00:26N 32°07' E 030°41'0 0.1
2014-Jul-28 23:33N 32°07' E 030°41'1 0.9
2014-Jul-28 22:33N 32°06' E 030°40'2 1.7
2014-Jul-28 21:33N 32°06' E 030°38'0 0.0
2014-Jul-28 20:33N 32°06' E 030°38'0 0.1
2014-Jul-28 19:33N 32°06' E 030°38'0 0.0
2014-Jul-28 18:33N 32°06' E 030°38'0 0.0
2014-Jul-28 17:33N 32°06' E 030°38'0 0.0
2014-Jul-28 16:33N 32°06' E 030°38'0 0.0
2014-Jul-28 15:33N 32°06' E 030°38'0 0.0
2014-Jul-28 14:33N 32°06' E 030°38'0 0.1
2014-Jul-28 13:33N 32°06' E 030°38'0 0.0
2014-Jul-28 12:33N 32°06' E 030°38'0 0.0
2014-Jul-28 10:33N 32°06' E 030°38'0 0.0
2014-Jul-28 09:33N 32°06' E 030°38'0 0.0
2014-Jul-28 05:33N 32°06' E 030°38'0 0.0
2014-Jul-27 19:33N 32°06' E 030°38'0 0.0
2014-Jul-27 17:33N 32°06' E 030°38'  
2014-Jul-24 13:31N 32°07' E 030°36'2 0.5
2014-Jul-24 09:24N 32°06' E 030°38'0 0.0
2014-Jul-24 08:33N 32°06' E 030°38'0 0.0
2014-Jul-24 07:33N 32°06' E 030°38'3 2.2
2014-Jul-24 06:25N 32°06' E 030°41'0 0.0
2014-Jul-24 05:33N 32°06' E 030°41'0 0.0
2014-Jul-24 04:33N 32°06' E 030°41'0 0.0
2014-Jul-24 03:33N 32°06' E 030°41'0 0.0
2014-Jul-24 02:33N 32°06' E 030°41'0 0.0
2014-Jul-24 01:33N 32°06' E 030°41'0 0.0
2014-Jul-24 00:33N 32°06' E 030°41'0 0.0
2014-Jul-23 23:32N 32°06' E 030°41'0 0.0
2014-Jul-23 22:33N 32°06' E 030°41'0 0.0
2014-Jul-23 21:27N 32°06' E 030°41'0 0.0
2014-Jul-23 20:33N 32°06' E 030°41'0 0.0
2014-Jul-23 19:33N 32°06' E 030°41'0 0.0
2014-Jul-23 18:33N 32°06' E 030°41'0 0.0
2014-Jul-23 17:33N 32°06' E 030°41'0 0.0
2014-Jul-23 16:33N 32°06' E 030°41'0 0.0
2014-Jul-23 15:33N 32°06' E 030°41'0 0.0
2014-Jul-23 14:33N 32°06' E 030°41'0 0.0
2014-Jul-23 13:33N 32°06' E 030°41'0 0.0
2014-Jul-23 12:33N 32°06' E 030°41'0 0.0
2014-Jul-23 11:32N 32°06' E 030°41'0 0.1
2014-Jul-23 10:32N 32°06' E 030°41'0 0.0
2014-Jul-23 09:33N 32°06' E 030°41'0 0.0
2014-Jul-23 08:33N 32°06' E 030°41'0 0.0
2014-Jul-23 07:33N 32°06' E 030°41'0 0.0
2014-Jul-23 06:33N 32°06' E 030°41'0 0.1
2014-Jul-23 05:33N 32°06' E 030°41'0 0.0
2014-Jul-23 04:33N 32°06' E 030°41'0 0.0
2014-Jul-23 03:33N 32°06' E 030°41'0 0.0
2014-Jul-23 01:33N 32°06' E 030°41'0 0.0
2014-Jul-23 00:31N 32°06' E 030°41'0 0.0
2014-Jul-22 23:33N 32°06' E 030°41'0 0.0
2014-Jul-22 22:33N 32°06' E 030°41'0 0.0
2014-Jul-22 21:33N 32°06' E 030°41'0 0.1
2014-Jul-22 19:32N 32°06' E 030°41'0 0.0
2014-Jul-22 18:33N 32°06' E 030°41'0 0.1
2014-Jul-22 17:33N 32°06' E 030°41'0 0.0
2014-Jul-22 16:33N 32°06' E 030°41'0 0.0
2014-Jul-22 15:33N 32°06' E 030°41'0 0.0
2014-Jul-22 14:23N 32°06' E 030°41'0 0.0
2014-Jul-22 13:33N 32°06' E 030°41'1 0.3
2014-Jul-22 10:13N 32°05' E 030°40'6 9.3
2014-Jul-22 09:33N 32°03' E 030°33'  
Track history (hours):
 
Tides and Currents Weather Stations Pressure Air Temp Water Temp Dewpoint Dewpoint Depression Visibility Wind Speed Wind Dir Waves Ship Positions

Bourbon Pearl

Last reported at 2014-Jul-30 01:29 UTC. Time now 2014-Jul-30 09:11 UTC.
Position N 32°06' E 030°41'.

Length 91 m; draft 6 m.

Type: Other ship. MMSI: 258176000.

Date/timePositionNaut miles runAvg speedWind from/ knotsBaromVisibWave heightAir tempDewpointWater temp
2014-Jul-30 01:29N 32°06' E 030°41'0 0.0
2014-Jul-30 00:33N 32°06' E 030°41'0 0.1
2014-Jul-29 23:33N 32°06' E 030°41'0 0.0
2014-Jul-29 22:33N 32°06' E 030°41'0 0.0
2014-Jul-29 21:33N 32°06' E 030°41'0 0.1
2014-Jul-29 20:33N 32°06' E 030°41'1 1.0
2014-Jul-29 19:33N 32°07' E 030°41'0 0.1
2014-Jul-29 18:30N 32°07' E 030°41'0 0.0
2014-Jul-29 17:33N 32°07' E 030°41'0 0.1
2014-Jul-29 16:33N 32°07' E 030°41'0 0.1
2014-Jul-29 15:33N 32°07' E 030°41'0 0.0
2014-Jul-29 14:33N 32°07' E 030°41'0 0.0
2014-Jul-29 13:33N 32°07' E 030°41'0 0.1
2014-Jul-29 12:33N 32°07' E 030°41'0 0.1
2014-Jul-29 11:33N 32°07' E 030°41'0 0.0
2014-Jul-29 10:33N 32°07' E 030°41'0 0.0
2014-Jul-29 09:33N 32°07' E 030°41'0 0.0
2014-Jul-29 08:33N 32°07' E 030°41'0 0.0
2014-Jul-29 07:33N 32°07' E 030°41'0 0.1
2014-Jul-29 06:19N 32°07' E 030°41'0 0.0
2014-Jul-29 05:33N 32°07' E 030°41'0 0.0
2014-Jul-29 01:33N 32°07' E 030°41'0 0.0
2014-Jul-29 00:26N 32°07' E 030°41'0 0.1
2014-Jul-28 23:33N 32°07' E 030°41'1 0.9
2014-Jul-28 22:33N 32°06' E 030°40'2 1.7
2014-Jul-28 21:33N 32°06' E 030°38'0 0.0
2014-Jul-28 20:33N 32°06' E 030°38'0 0.1
2014-Jul-28 19:33N 32°06' E 030°38'0 0.0
2014-Jul-28 18:33N 32°06' E 030°38'0 0.0
2014-Jul-28 17:33N 32°06' E 030°38'0 0.0
2014-Jul-28 16:33N 32°06' E 030°38'0 0.0
2014-Jul-28 15:33N 32°06' E 030°38'0 0.0
2014-Jul-28 14:33N 32°06' E 030°38'0 0.1
2014-Jul-28 13:33N 32°06' E 030°38'0 0.0
2014-Jul-28 12:33N 32°06' E 030°38'0 0.0
2014-Jul-28 10:33N 32°06' E 030°38'0 0.0
2014-Jul-28 09:33N 32°06' E 030°38'0 0.0
2014-Jul-28 05:33N 32°06' E 030°38'0 0.0
2014-Jul-27 19:33N 32°06' E 030°38'0 0.0
2014-Jul-27 17:33N 32°06' E 030°38'  
2014-Jul-24 13:31N 32°07' E 030°36'2 0.5
2014-Jul-24 09:24N 32°06' E 030°38'0 0.0
2014-Jul-24 08:33N 32°06' E 030°38'0 0.0
2014-Jul-24 07:33N 32°06' E 030°38'3 2.2
2014-Jul-24 06:25N 32°06' E 030°41'0 0.0
2014-Jul-24 05:33N 32°06' E 030°41'0 0.0
2014-Jul-24 04:33N 32°06' E 030°41'0 0.0
2014-Jul-24 03:33N 32°06' E 030°41'0 0.0
2014-Jul-24 02:33N 32°06' E 030°41'0 0.0
2014-Jul-24 01:33N 32°06' E 030°41'0 0.0
2014-Jul-24 00:33N 32°06' E 030°41'0 0.0
2014-Jul-23 23:32N 32°06' E 030°41'0 0.0
2014-Jul-23 22:33N 32°06' E 030°41'0 0.0
2014-Jul-23 21:27N 32°06' E 030°41'0 0.0
2014-Jul-23 20:33N 32°06' E 030°41'0 0.0
2014-Jul-23 19:33N 32°06' E 030°41'0 0.0
2014-Jul-23 18:33N 32°06' E 030°41'0 0.0
2014-Jul-23 17:33N 32°06' E 030°41'0 0.0
2014-Jul-23 16:33N 32°06' E 030°41'0 0.0
2014-Jul-23 15:33N 32°06' E 030°41'0 0.0
2014-Jul-23 14:33N 32°06' E 030°41'0 0.0
2014-Jul-23 13:33N 32°06' E 030°41'0 0.0
2014-Jul-23 12:33N 32°06' E 030°41'0 0.0
2014-Jul-23 11:32N 32°06' E 030°41'0 0.1
2014-Jul-23 10:32N 32°06' E 030°41'0 0.0
2014-Jul-23 09:33N 32°06' E 030°41'0 0.0
2014-Jul-23 08:33N 32°06' E 030°41'0 0.0
2014-Jul-23 07:33N 32°06' E 030°41'0 0.0
2014-Jul-23 06:33N 32°06' E 030°41'0 0.1
2014-Jul-23 05:33N 32°06' E 030°41'0 0.0
2014-Jul-23 04:33N 32°06' E 030°41'0 0.0
2014-Jul-23 03:33N 32°06' E 030°41'0 0.0
2014-Jul-23 01:33N 32°06' E 030°41'0 0.0
2014-Jul-23 00:31N 32°06' E 030°41'0 0.0
2014-Jul-22 23:33N 32°06' E 030°41'0 0.0
2014-Jul-22 22:33N 32°06' E 030°41'0 0.0
2014-Jul-22 21:33N 32°06' E 030°41'0 0.1
2014-Jul-22 19:32N 32°06' E 030°41'0 0.0
2014-Jul-22 18:33N 32°06' E 030°41'0 0.1
2014-Jul-22 17:33N 32°06' E 030°41'0 0.0
2014-Jul-22 16:33N 32°06' E 030°41'0 0.0
2014-Jul-22 15:33N 32°06' E 030°41'0 0.0
2014-Jul-22 14:23N 32°06' E 030°41'0 0.0
2014-Jul-22 13:33N 32°06' E 030°41'1 0.3
2014-Jul-22 10:13N 32°05' E 030°40'6 9.3
2014-Jul-22 09:33N 32°03' E 030°33'  

Dump ship's entire track history